Time;durP1;ratioP1;P1;durP2;ratioP2;P2;SDS_P1;SDS_P2;PMS_P1;PMS_P2;Temp;Humidity;BMP_temperature;BMP_pressure;BME280_temperature;BME280_humidity;BME280_pressure;Samples;Min_cycle;Max_cycle;Signal;HPM_P1;HPM_P2
2023/07/29 00:01:09;;;;;;;1.50;1.00;;;;;;;;;;5052669;28;20044;-78
2023/07/29 00:03:36;;;;;;;2.28;1.20;;;;;;;;;;5051028;28;20099;-79
2023/07/29 00:06:03;;;;;;;1.60;1.10;;;;;;;;;;5051043;28;20576;-80
2023/07/29 00:08:29;;;;;;;1.45;1.05;;;;;;;;;;5054719;28;20110;-80
2023/07/29 00:10:56;;;;;;;1.35;1.00;;;;;;;;;;5043226;28;20071;-79
2023/07/29 00:13:23;;;;;;;5.05;1.20;;;;;;;;;;5053059;28;20068;-77
2023/07/29 00:15:49;;;;;;;3.55;1.20;;;;;;;;;;5035352;28;20060;-79
2023/07/29 00:18:16;;;;;;;4.05;1.00;;;;;;;;;;5054804;28;20059;-79
2023/07/29 00:20:43;;;;;;;1.08;0.88;;;;;;;;;;5051725;28;20110;-79
2023/07/29 00:23:09;;;;;;;1.00;0.80;;;;;;;;;;5051642;28;20037;-79
2023/07/29 00:25:36;;;;;;;3.15;0.88;;;;;;;;;;5049937;28;20108;-80
2023/07/29 00:28:06;;;;;;;2.25;1.10;;;;;;;;;;5030220;28;20041;-80
2023/07/29 00:30:36;;;;;;;2.38;1.00;;;;;;;;;;5030392;28;20067;-79
2023/07/29 00:33:06;;;;;;;2.35;1.20;;;;;;;;;;5034520;28;20052;-81
2023/07/29 00:35:32;;;;;;;1.42;1.08;;;;;;;;;;5034068;28;20037;-79
2023/07/29 00:37:59;;;;;;;1.30;1.00;;;;;;;;;;5031744;28;20065;-79
2023/07/29 00:40:28;;;;;;;2.10;0.90;;;;;;;;;;5033275;28;20041;-79
2023/07/29 00:42:54;;;;;;;1.58;0.80;;;;;;;;;;5032279;28;20033;-80
2023/07/29 00:45:24;;;;;;;1.08;0.88;;;;;;;;;;5020054;28;20132;-79
2023/07/29 00:47:54;;;;;;;1.30;0.82;;;;;;;;;;5042405;28;20049;-78
2023/07/29 00:50:21;;;;;;;1.42;0.93;;;;;;;;;;5028317;28;20072;-79
2023/07/29 00:52:48;;;;;;;1.35;0.80;;;;;;;;;;5016833;28;20040;-80
2023/07/29 00:55:17;;;;;;;1.25;0.93;;;;;;;;;;5012156;28;20527;-79
2023/07/29 00:57:48;;;;;;;1.58;0.80;;;;;;;;;;5034179;28;20041;-79
2023/07/29 01:00:16;;;;;;;1.45;0.80;;;;;;;;;;5037822;28;20045;-77
2023/07/29 01:02:43;;;;;;;1.25;0.77;;;;;;;;;;5035117;28;20047;-79
2023/07/29 01:05:13;;;;;;;4.22;1.25;;;;;;;;;;5036156;28;20037;-78
2023/07/29 01:08:00;;;;;;;1.40;0.82;;;;;;;;;;5034478;28;20508;-78
2023/07/29 01:10:51;;;;;;;2.65;0.80;;;;;;;;;;5033977;28;20053;-78
2023/07/29 01:13:32;;;;;;;8.07;1.25;;;;;;;;;;5030145;28;20034;-79
2023/07/29 01:16:02;;;;;;;1.70;0.80;;;;;;;;;;5033427;28;20088;-78
2023/07/29 01:18:30;;;;;;;1.17;0.90;;;;;;;;;;5015922;28;20053;-79
2023/07/29 01:21:07;;;;;;;1.15;1.00;;;;;;;;;;5016560;28;20159;-78
2023/07/29 01:23:33;;;;;;;1.00;0.90;;;;;;;;;;5017454;28;20041;-79
2023/07/29 01:26:04;;;;;;;1.00;0.90;;;;;;;;;;5011361;28;20042;-78
2023/07/29 01:28:32;;;;;;;1.77;0.90;;;;;;;;;;5034100;28;20041;-77
2023/07/29 01:31:17;;;;;;;1.50;0.90;;;;;;;;;;5035527;28;20037;-78
2023/07/29 01:33:53;;;;;;;1.88;1.00;;;;;;;;;;5054285;28;20605;-78
2023/07/29 01:36:22;;;;;;;1.10;0.88;;;;;;;;;;5026938;28;20033;-79
2023/07/29 01:38:50;;;;;;;1.30;1.10;;;;;;;;;;5042057;28;20051;-79
2023/07/29 01:41:17;;;;;;;3.05;1.10;;;;;;;;;;5030212;28;20045;-79
2023/07/29 01:43:44;;;;;;;3.58;0.90;;;;;;;;;;5057439;28;20098;-79
2023/07/29 01:46:11;;;;;;;1.50;1.08;;;;;;;;;;5039890;28;20137;-78
2023/07/29 01:48:38;;;;;;;3.15;1.00;;;;;;;;;;5030966;28;20048;-78
2023/07/29 01:51:05;;;;;;;1.58;1.00;;;;;;;;;;5041522;28;20029;-79
2023/07/29 01:53:33;;;;;;;1.60;1.10;;;;;;;;;;5028998;28;20152;-77
2023/07/29 01:56:00;;;;;;;1.48;1.10;;;;;;;;;;5027281;28;20064;-79
2023/07/29 01:58:26;;;;;;;1.65;0.90;;;;;;;;;;5031560;28;25335;-78
2023/07/29 02:00:53;;;;;;;1.40;0.90;;;;;;;;;;5018564;28;20033;-79
2023/07/29 02:03:20;;;;;;;1.33;0.80;;;;;;;;;;5026419;28;20041;-79
2023/07/29 02:05:46;;;;;;;1.48;0.90;;;;;;;;;;5032251;28;20033;-78
2023/07/29 02:08:13;;;;;;;1.33;0.70;;;;;;;;;;5042255;28;20040;-79
2023/07/29 02:10:40;;;;;;;1.02;0.73;;;;;;;;;;5034190;28;20025;-78
2023/07/29 02:13:07;;;;;;;1.92;0.80;;;;;;;;;;5036568;28;20044;-80
2023/07/29 02:15:36;;;;;;;1.48;0.80;;;;;;;;;;5036302;28;20044;-78
2023/07/29 02:18:03;;;;;;;1.55;0.75;;;;;;;;;;5017874;28;20068;-80
2023/07/29 02:20:30;;;;;;;0.80;0.70;;;;;;;;;;5014941;28;20041;-80
2023/07/29 02:22:56;;;;;;;1.00;0.63;;;;;;;;;;4999528;28;20397;-80
2023/07/29 02:25:23;;;;;;;1.10;0.75;;;;;;;;;;5014831;28;20042;-79
2023/07/29 02:27:50;;;;;;;0.95;0.60;;;;;;;;;;5030278;28;20072;-79
2023/07/29 02:30:16;;;;;;;1.10;0.80;;;;;;;;;;5039818;28;20037;-80
2023/07/29 02:32:43;;;;;;;1.00;0.70;;;;;;;;;;5042899;28;20045;-79
2023/07/29 02:35:10;;;;;;;1.73;0.70;;;;;;;;;;5043420;28;20120;-80
2023/07/29 02:37:36;;;;;;;3.35;0.60;;;;;;;;;;5014078;28;20041;-79
2023/07/29 02:40:03;;;;;;;1.00;0.60;;;;;;;;;;5015949;28;20037;-80
2023/07/29 02:42:30;;;;;;;0.75;0.60;;;;;;;;;;5015247;28;20059;-79
2023/07/29 02:44:57;;;;;;;1.10;0.70;;;;;;;;;;5025043;28;20107;-80
2023/07/29 02:47:23;;;;;;;5.78;0.77;;;;;;;;;;5052713;28;20106;-79
2023/07/29 02:49:50;;;;;;;1.05;0.63;;;;;;;;;;5037059;28;20065;-80
2023/07/29 02:52:17;;;;;;;2.42;0.73;;;;;;;;;;5033715;28;20063;-78
2023/07/29 02:54:43;;;;;;;1.30;0.60;;;;;;;;;;5034250;28;20044;-79
2023/07/29 02:57:10;;;;;;;1.35;0.80;;;;;;;;;;5024935;28;20037;-79
2023/07/29 02:59:37;;;;;;;0.80;0.70;;;;;;;;;;5030791;28;20033;-79
2023/07/29 03:02:03;;;;;;;1.58;0.73;;;;;;;;;;5051052;28;20136;-79
2023/07/29 03:04:30;;;;;;;1.38;0.70;;;;;;;;;;5031375;28;20217;-81
2023/07/29 03:06:59;;;;;;;0.60;0.60;;;;;;;;;;5028477;28;20146;-79
2023/07/29 03:09:26;;;;;;;0.95;0.65;;;;;;;;;;5031810;28;20512;-78
2023/07/29 03:11:54;;;;;;;0.80;0.80;;;;;;;;;;5050466;28;20052;-79
2023/07/29 03:14:21;;;;;;;1.38;0.70;;;;;;;;;;5048351;28;20072;-78
2023/07/29 03:16:47;;;;;;;1.27;0.70;;;;;;;;;;5032287;28;20064;-79
2023/07/29 03:19:15;;;;;;;1.42;0.80;;;;;;;;;;5023623;28;20045;-78
2023/07/29 03:21:42;;;;;;;1.20;0.80;;;;;;;;;;5010458;28;20041;-79
2023/07/29 03:24:08;;;;;;;1.60;0.70;;;;;;;;;;5015657;28;20034;-80
2023/07/29 03:26:35;;;;;;;1.45;0.80;;;;;;;;;;5033635;28;20140;-80
2023/07/29 03:29:02;;;;;;;0.80;0.80;;;;;;;;;;5024961;28;20492;-79
2023/07/29 03:31:29;;;;;;;0.98;0.70;;;;;;;;;;5013370;28;20569;-81
2023/07/29 03:33:56;;;;;;;1.90;0.80;;;;;;;;;;5041090;28;20052;-79
2023/07/29 03:36:25;;;;;;;1.80;0.80;;;;;;;;;;5006487;28;20136;-77
2023/07/29 03:38:52;;;;;;;1.10;0.70;;;;;;;;;;5048917;28;20044;-78
2023/07/29 03:41:18;;;;;;;1.02;0.80;;;;;;;;;;5029827;28;20144;-78
2023/07/29 03:43:45;;;;;;;1.42;0.60;;;;;;;;;;5034497;28;20045;-77
2023/07/29 03:46:13;;;;;;;1.60;1.00;;;;;;;;;;5032517;28;20040;-78
2023/07/29 03:48:40;;;;;;;1.33;0.90;;;;;;;;;;5051644;28;20037;-78
2023/07/29 03:51:07;;;;;;;1.08;0.90;;;;;;;;;;5035968;28;20347;-79
2023/07/29 03:53:33;;;;;;;3.33;0.98;;;;;;;;;;5025261;28;20041;-77
2023/07/29 03:56:00;;;;;;;0.93;0.80;;;;;;;;;;5029596;28;20044;-80
2023/07/29 03:58:27;;;;;;;1.10;0.73;;;;;;;;;;5027518;28;20102;-79
2023/07/29 04:00:54;;;;;;;1.17;0.88;;;;;;;;;;5029692;28;20033;-80
2023/07/29 04:03:20;;;;;;;0.82;0.63;;;;;;;;;;5029245;28;20045;-79
2023/07/29 04:05:51;;;;;;;1.30;1.00;;;;;;;;;;5030808;28;20061;-79
2023/07/29 04:08:18;;;;;;;1.38;0.80;;;;;;;;;;5033100;28;20124;-80
2023/07/29 04:10:45;;;;;;;1.17;0.80;;;;;;;;;;5031180;28;20045;-78
2023/07/29 04:13:11;;;;;;;1.27;0.90;;;;;;;;;;5037746;28;20069;-79
2023/07/29 04:15:38;;;;;;;2.65;1.05;;;;;;;;;;5042667;28;20047;-79
2023/07/29 04:18:04;;;;;;;0.77;0.77;;;;;;;;;;5035893;28;20108;-81
2023/07/29 04:20:32;;;;;;;1.48;1.00;;;;;;;;;;5042453;28;20101;-78
2023/07/29 04:22:58;;;;;;;1.88;1.05;;;;;;;;;;5041747;28;20045;-79
2023/07/29 04:25:25;;;;;;;1.88;1.00;;;;;;;;;;5035278;28;20049;-80
2023/07/29 04:27:51;;;;;;;1.55;0.90;;;;;;;;;;5053048;28;20040;-79
2023/07/29 04:30:18;;;;;;;1.60;1.10;;;;;;;;;;5035183;28;20112;-79
2023/07/29 04:32:48;;;;;;;1.17;0.90;;;;;;;;;;5027714;28;20037;-79
2023/07/29 04:35:15;;;;;;;1.77;1.15;;;;;;;;;;5017689;28;20119;-79
2023/07/29 04:37:41;;;;;;;1.10;0.90;;;;;;;;;;5034667;28;20104;-79
2023/07/29 04:40:08;;;;;;;1.35;1.00;;;;;;;;;;5036821;28;20044;-78
2023/07/29 04:42:35;;;;;;;1.55;0.88;;;;;;;;;;5049348;28;20048;-78
2023/07/29 04:45:02;;;;;;;1.73;1.10;;;;;;;;;;5048107;28;20036;-79
2023/07/29 04:47:31;;;;;;;1.55;1.10;;;;;;;;;;5039348;28;20053;-78
2023/07/29 04:49:58;;;;;;;3.85;1.00;;;;;;;;;;5034894;28;20041;-79
2023/07/29 04:52:24;;;;;;;1.95;0.95;;;;;;;;;;5050006;28;20121;-79
2023/07/29 04:54:51;;;;;;;5.97;1.10;;;;;;;;;;5053238;28;20037;-79
2023/07/29 04:57:18;;;;;;;2.35;0.95;;;;;;;;;;5037263;28;20086;-78
2023/07/29 04:59:44;;;;;;;7.03;1.08;;;;;;;;;;5036954;28;20041;-78
2023/07/29 05:02:11;;;;;;;5.40;1.00;;;;;;;;;;5035196;28;20038;-78
2023/07/29 05:04:37;;;;;;;6.85;0.98;;;;;;;;;;5052667;28;20040;-79
2023/07/29 05:07:04;;;;;;;1.73;1.15;;;;;;;;;;5032818;28;20056;-79
2023/07/29 05:09:31;;;;;;;2.67;1.15;;;;;;;;;;5037672;28;20124;-78
2023/07/29 05:11:58;;;;;;;2.05;0.90;;;;;;;;;;5040394;28;20029;-79
2023/07/29 05:14:24;;;;;;;1.20;0.88;;;;;;;;;;5039384;28;20056;-78
2023/07/29 05:16:51;;;;;;;2.33;0.98;;;;;;;;;;5037987;28;20031;-80
2023/07/29 05:19:18;;;;;;;2.50;1.02;;;;;;;;;;5040212;28;20041;-79
2023/07/29 05:21:44;;;;;;;3.03;0.95;;;;;;;;;;5056319;28;20041;-80
2023/07/29 05:24:13;;;;;;;3.47;1.35;;;;;;;;;;5039579;28;20033;-79
2023/07/29 05:26:39;;;;;;;3.38;1.00;;;;;;;;;;5034382;28;20041;-80
2023/07/29 05:29:06;;;;;;;1.20;1.00;;;;;;;;;;5034180;28;20041;-80
2023/07/29 05:31:33;;;;;;;1.42;0.90;;;;;;;;;;5037638;28;20040;-80
2023/07/29 05:34:00;;;;;;;1.63;0.98;;;;;;;;;;5031069;28;20041;-80
2023/07/29 05:36:26;;;;;;;1.00;0.90;;;;;;;;;;5043579;28;20049;-80
2023/07/29 05:38:53;;;;;;;1.33;0.70;;;;;;;;;;5029228;28;20046;-80
2023/07/29 05:41:20;;;;;;;1.52;1.05;;;;;;;;;;5054239;28;20049;-78
2023/07/29 05:43:48;;;;;;;1.70;1.00;;;;;;;;;;5037556;28;20048;-78
2023/07/29 05:46:15;;;;;;;2.65;0.98;;;;;;;;;;5038135;28;20045;-80
2023/07/29 05:48:42;;;;;;;1.00;0.90;;;;;;;;;;5038488;28;20052;-77
2023/07/29 05:51:08;;;;;;;6.35;1.02;;;;;;;;;;5053579;28;20053;-79
2023/07/29 05:53:35;;;;;;;1.23;0.70;;;;;;;;;;5017324;28;20120;-79
2023/07/29 05:56:02;;;;;;;1.17;0.90;;;;;;;;;;5036630;28;20045;-77
2023/07/29 05:58:31;;;;;;;2.03;1.02;;;;;;;;;;5054069;28;20064;-78
2023/07/29 06:00:57;;;;;;;1.33;0.98;;;;;;;;;;5035442;28;20048;-79
2023/07/29 06:03:24;;;;;;;0.80;0.60;;;;;;;;;;5035339;28;20414;-78
2023/07/29 06:05:51;;;;;;;4.97;0.90;;;;;;;;;;5034433;28;20037;-80
2023/07/29 06:08:20;;;;;;;3.05;0.90;;;;;;;;;;5054099;28;20095;-79
2023/07/29 06:10:47;;;;;;;1.08;0.85;;;;;;;;;;5033543;28;20132;-80
2023/07/29 06:13:14;;;;;;;4.10;0.90;;;;;;;;;;5035525;28;20071;-79
2023/07/29 06:15:41;;;;;;;1.20;0.80;;;;;;;;;;5050493;28;20663;-80
2023/07/29 06:18:07;;;;;;;2.53;0.88;;;;;;;;;;5014460;28;20107;-78
2023/07/29 06:20:34;;;;;;;1.45;0.90;;;;;;;;;;5047958;28;20220;-78
2023/07/29 06:23:02;;;;;;;1.08;0.70;;;;;;;;;;5015364;28;20048;-81
2023/07/29 06:25:28;;;;;;;1.27;0.70;;;;;;;;;;5030615;28;20073;-78
2023/07/29 06:27:55;;;;;;;0.85;0.80;;;;;;;;;;5028555;28;20103;-80
2023/07/29 06:30:22;;;;;;;0.65;0.60;;;;;;;;;;5014871;28;20050;-78
2023/07/29 06:32:48;;;;;;;1.05;0.88;;;;;;;;;;5033386;28;20057;-79
2023/07/29 06:35:15;;;;;;;1.25;0.70;;;;;;;;;;5039295;28;20487;-79
2023/07/29 06:37:42;;;;;;;1.10;0.60;;;;;;;;;;5033038;28;20048;-79
2023/07/29 06:40:09;;;;;;;1.55;0.90;;;;;;;;;;5030526;28;20045;-79
2023/07/29 06:42:36;;;;;;;1.85;0.60;;;;;;;;;;5052340;28;20111;-80
2023/07/29 06:45:04;;;;;;;1.05;0.65;;;;;;;;;;5054358;28;20051;-80
2023/07/29 06:47:31;;;;;;;0.88;0.50;;;;;;;;;;5036338;28;20505;-79
2023/07/29 06:49:58;;;;;;;0.68;0.50;;;;;;;;;;5059119;28;20095;-81
2023/07/29 06:52:24;;;;;;;1.00;0.52;;;;;;;;;;5038201;28;20045;-81
2023/07/29 06:54:51;;;;;;;0.80;0.68;;;;;;;;;;5031312;28;20045;-79
2023/07/29 06:57:17;;;;;;;1.35;0.80;;;;;;;;;;5025910;28;20180;-80
2023/07/29 06:59:44;;;;;;;1.58;0.60;;;;;;;;;;5025479;28;20047;-79
2023/07/29 07:02:10;;;;;;;0.95;0.60;;;;;;;;;;5004932;28;20038;-79
2023/07/29 07:04:37;;;;;;;0.82;0.47;;;;;;;;;;5016605;28;22027;-79
2023/07/29 07:07:04;;;;;;;5.78;0.73;;;;;;;;;;5014643;28;20034;-78
2023/07/29 07:09:31;;;;;;;1.98;0.68;;;;;;;;;;5020011;28;20470;-79
2023/07/29 07:11:57;;;;;;;1.00;0.60;;;;;;;;;;5018629;28;20061;-79
2023/07/29 07:14:24;;;;;;;1.10;0.60;;;;;;;;;;5021977;28;20033;-78
2023/07/29 07:16:51;;;;;;;1.58;0.80;;;;;;;;;;5020237;28;20217;-79
2023/07/29 07:19:17;;;;;;;2.15;0.90;;;;;;;;;;5018231;28;20112;-78
2023/07/29 07:21:44;;;;;;;1.30;0.90;;;;;;;;;;5019359;28;20041;-80
2023/07/29 07:24:11;;;;;;;1.55;0.70;;;;;;;;;;5021551;28;20053;-81
2023/07/29 07:26:38;;;;;;;0.93;0.73;;;;;;;;;;5002165;28;20053;-79
2023/07/29 07:29:05;;;;;;;2.90;0.80;;;;;;;;;;5010124;28;20511;-80
2023/07/29 07:31:33;;;;;;;1.52;0.70;;;;;;;;;;5044299;28;20131;-79
2023/07/29 07:34:02;;;;;;;1.15;0.80;;;;;;;;;;5044890;28;20091;-82
2023/07/29 07:36:29;;;;;;;5.28;0.70;;;;;;;;;;5045549;28;20349;-81
2023/07/29 07:38:55;;;;;;;2.00;0.70;;;;;;;;;;5047254;28;20759;-81
2023/07/29 07:41:22;;;;;;;10.20;0.93;;;;;;;;;;5050849;28;20106;-76
2023/07/29 07:43:49;;;;;;;1.10;0.70;;;;;;;;;;5036895;28;20045;-79
2023/07/29 07:46:15;;;;;;;1.40;0.70;;;;;;;;;;5033662;28;20067;-81
2023/07/29 07:48:42;;;;;;;2.75;0.75;;;;;;;;;;5032610;28;20365;-79
2023/07/29 07:51:12;;;;;;;1.35;0.80;;;;;;;;;;5051373;28;20129;-79
2023/07/29 07:53:40;;;;;;;1.63;0.82;;;;;;;;;;5031695;28;20045;-81
2023/07/29 07:56:06;;;;;;;1.00;0.80;;;;;;;;;;5050611;28;20037;-81
2023/07/29 07:58:34;;;;;;;1.30;0.70;;;;;;;;;;5052031;28;20048;-81
2023/07/29 08:01:01;;;;;;;0.90;0.70;;;;;;;;;;5049076;28;20124;-81
2023/07/29 08:03:27;;;;;;;0.93;0.70;;;;;;;;;;5053478;28;20714;-82
2023/07/29 08:05:54;;;;;;;1.77;0.70;;;;;;;;;;5051949;28;20045;-79
2023/07/29 08:08:20;;;;;;;1.10;0.60;;;;;;;;;;5053776;28;20530;-81
2023/07/29 08:10:47;;;;;;;0.98;0.60;;;;;;;;;;5053242;28;20105;-80
2023/07/29 08:13:13;;;;;;;2.38;0.80;;;;;;;;;;5055359;28;20102;-80
2023/07/29 08:15:41;;;;;;;3.13;0.80;;;;;;;;;;5053868;28;20037;-79
2023/07/29 08:18:07;;;;;;;1.20;0.90;;;;;;;;;;5045289;28;20037;-79
2023/07/29 08:20:34;;;;;;;0.80;0.65;;;;;;;;;;5053924;28;20071;-79
2023/07/29 08:23:01;;;;;;;1.75;0.90;;;;;;;;;;5052949;28;20047;-80
2023/07/29 08:25:28;;;;;;;0.90;0.70;;;;;;;;;;5049949;28;20075;-79
2023/07/29 08:27:55;;;;;;;0.68;0.60;;;;;;;;;;5045792;28;20657;-79
2023/07/29 08:30:21;;;;;;;1.00;0.70;;;;;;;;;;5051774;28;20148;-79
2023/07/29 08:32:48;;;;;;;1.02;0.77;;;;;;;;;;5041387;28;20040;-81
2023/07/29 08:35:15;;;;;;;0.60;0.60;;;;;;;;;;5055906;28;20033;-80
2023/07/29 08:37:41;;;;;;;1.20;0.80;;;;;;;;;;5053546;28;20033;-80
2023/07/29 08:40:08;;;;;;;0.98;0.70;;;;;;;;;;5039176;28;20057;-79
2023/07/29 08:42:37;;;;;;;1.02;0.70;;;;;;;;;;5053756;28;20035;-82
2023/07/29 08:45:11;;;;;;;2.67;0.60;;;;;;;;;;5050330;28;20118;-80
2023/07/29 08:47:37;;;;;;;1.25;0.63;;;;;;;;;;5053907;28;20060;-80
2023/07/29 08:50:04;;;;;;;0.70;0.50;;;;;;;;;;5055207;28;20044;-81
2023/07/29 08:52:35;;;;;;;1.27;0.70;;;;;;;;;;5054151;28;20037;-80
2023/07/29 08:55:02;;;;;;;3.17;0.60;;;;;;;;;;5047415;28;20029;-80
2023/07/29 08:57:29;;;;;;;0.63;0.50;;;;;;;;;;5048639;28;20041;-80
2023/07/29 08:59:56;;;;;;;0.68;0.40;;;;;;;;;;5057210;28;20056;-81
2023/07/29 09:02:23;;;;;;;0.88;0.50;;;;;;;;;;5054483;28;20411;-80
2023/07/29 09:04:49;;;;;;;3.13;0.40;;;;;;;;;;5055878;28;20033;-81
2023/07/29 09:07:16;;;;;;;0.77;0.50;;;;;;;;;;5035659;28;20537;-81
2023/07/29 09:09:43;;;;;;;0.40;0.40;;;;;;;;;;5029620;28;20494;-80
2023/07/29 09:12:11;;;;;;;0.70;0.43;;;;;;;;;;5044357;28;20107;-80
2023/07/29 09:14:37;;;;;;;0.90;0.40;;;;;;;;;;5055126;28;20053;-79
2023/07/29 09:17:06;;;;;;;0.47;0.47;;;;;;;;;;5056433;28;20041;-80
2023/07/29 09:19:34;;;;;;;0.68;0.55;;;;;;;;;;5055108;28;20229;-80
2023/07/29 09:22:00;;;;;;;0.90;0.50;;;;;;;;;;5055985;28;20037;-81
2023/07/29 09:24:29;;;;;;;1.00;0.57;;;;;;;;;;5035529;28;20056;-79
2023/07/29 09:26:56;;;;;;;2.03;0.60;;;;;;;;;;5045878;28;20048;-79
2023/07/29 09:29:23;;;;;;;0.80;0.60;;;;;;;;;;5052165;28;20069;-79
2023/07/29 09:31:50;;;;;;;1.08;0.50;;;;;;;;;;5025049;28;20045;-78
2023/07/29 09:34:17;;;;;;;1.00;0.60;;;;;;;;;;5042829;28;20041;-80
2023/07/29 09:36:44;;;;;;;21.45;1.33;;;;;;;;;;5018592;28;20049;-79
2023/07/29 09:39:11;;;;;;;1.20;0.52;;;;;;;;;;5053045;28;20064;-78
2023/07/29 09:41:38;;;;;;;0.60;0.50;;;;;;;;;;5049418;28;20519;-78
2023/07/29 09:44:05;;;;;;;0.70;0.60;;;;;;;;;;5033401;28;20040;-78
2023/07/29 09:46:36;;;;;;;0.80;0.60;;;;;;;;;;5050786;28;20041;-78
2023/07/29 09:49:05;;;;;;;1.02;0.60;;;;;;;;;;5051769;28;20116;-80
2023/07/29 09:51:32;;;;;;;0.70;0.52;;;;;;;;;;5032760;28;20059;-80
2023/07/29 09:54:02;;;;;;;0.80;0.60;;;;;;;;;;5052554;28;20049;-79
2023/07/29 09:56:29;;;;;;;1.15;0.77;;;;;;;;;;5054042;28;20052;-79
2023/07/29 09:58:56;;;;;;;1.70;0.73;;;;;;;;;;5056505;28;20041;-80
2023/07/29 10:01:23;;;;;;;1.20;0.75;;;;;;;;;;5058382;28;20040;-80
2023/07/29 10:03:50;;;;;;;1.45;0.70;;;;;;;;;;5061060;28;20100;-79
2023/07/29 10:06:17;;;;;;;0.60;0.50;;;;;;;;;;5061049;28;20041;-80
2023/07/29 10:08:44;;;;;;;1.88;0.70;;;;;;;;;;5056316;28;20033;-79
2023/07/29 10:11:11;;;;;;;1.08;0.50;;;;;;;;;;5036581;28;20052;-80
2023/07/29 10:13:40;;;;;;;0.82;0.60;;;;;;;;;;5055045;28;20045;-79
2023/07/29 10:16:08;;;;;;;1.98;0.50;;;;;;;;;;5036949;28;20141;-78
2023/07/29 10:18:35;;;;;;;2.70;0.38;;;;;;;;;;5060060;28;20029;-79
2023/07/29 10:21:02;;;;;;;4.60;0.73;;;;;;;;;;5056627;28;20096;-79
2023/07/29 10:23:34;;;;;;;1.50;0.50;;;;;;;;;;5058876;28;20049;-80
2023/07/29 10:26:10;;;;;;;0.30;0.30;;;;;;;;;;5041836;28;20562;-80
2023/07/29 10:28:39;;;;;;;0.50;0.30;;;;;;;;;;5053466;28;20041;-79
2023/07/29 10:31:07;;;;;;;4.80;0.63;;;;;;;;;;5055106;28;20053;-80
2023/07/29 10:33:36;;;;;;;0.50;0.40;;;;;;;;;;5033976;28;20502;-79
2023/07/29 10:36:04;;;;;;;0.70;0.40;;;;;;;;;;5057293;28;20185;-80
2023/07/29 10:38:31;;;;;;;0.60;0.40;;;;;;;;;;5058273;28;20049;-79
2023/07/29 10:41:00;;;;;;;1.08;0.45;;;;;;;;;;5045226;28;20108;-79
2023/07/29 10:43:30;;;;;;;0.60;0.50;;;;;;;;;;5042866;28;20060;-80
2023/07/29 10:45:57;;;;;;;0.50;0.40;;;;;;;;;;5047001;28;20212;-78
2023/07/29 10:48:42;;;;;;;0.88;0.50;;;;;;;;;;5058138;28;20037;-82
2023/07/29 10:51:35;;;;;;;1.40;0.40;;;;;;;;;;5057930;28;20048;-80
2023/07/29 10:54:02;;;;;;;0.82;0.50;;;;;;;;;;5034529;28;20038;-80
2023/07/29 10:56:28;;;;;;;1.15;0.60;;;;;;;;;;5051831;28;20048;-79
2023/07/29 10:58:56;;;;;;;1.13;0.60;;;;;;;;;;5060448;28;20101;-79
2023/07/29 11:01:27;;;;;;;0.98;0.50;;;;;;;;;;5040025;28;20054;-77
2023/07/29 11:04:12;;;;;;;1.00;0.60;;;;;;;;;;5054849;28;20047;-76
2023/07/29 11:06:58;;;;;;;0.57;0.52;;;;;;;;;;5031043;28;20125;-78
2023/07/29 11:09:44;;;;;;;0.77;0.50;;;;;;;;;;5022715;28;20047;-79
2023/07/29 11:12:29;;;;;;;0.80;0.57;;;;;;;;;;5034143;28;20041;-79
2023/07/29 11:14:56;;;;;;;1.60;0.50;;;;;;;;;;5015176;28;20048;-81
2023/07/29 11:17:23;;;;;;;0.98;0.60;;;;;;;;;;5059624;28;20056;-80
2023/07/29 11:19:50;;;;;;;0.77;0.60;;;;;;;;;;5069043;28;20037;-79
2023/07/29 11:22:16;;;;;;;0.80;0.60;;;;;;;;;;5050812;28;20052;-80
2023/07/29 11:24:43;;;;;;;1.88;0.80;;;;;;;;;;5072498;28;20032;-78
2023/07/29 11:27:12;;;;;;;0.85;0.68;;;;;;;;;;5067650;28;20048;-79
2023/07/29 11:29:39;;;;;;;3.55;0.70;;;;;;;;;;5052102;28;20052;-80
2023/07/29 11:32:06;;;;;;;1.60;0.75;;;;;;;;;;5058347;28;20048;-79
2023/07/29 11:34:32;;;;;;;1.63;0.70;;;;;;;;;;5051288;28;20053;-78
2023/07/29 11:36:59;;;;;;;0.80;0.60;;;;;;;;;;5053458;28;20131;-79
2023/07/29 11:39:26;;;;;;;1.20;0.60;;;;;;;;;;5052011;28;20045;-79
2023/07/29 11:41:53;;;;;;;2.72;0.70;;;;;;;;;;5038338;28;20658;-79
2023/07/29 11:44:19;;;;;;;1.70;0.60;;;;;;;;;;5043025;28;20052;-80
2023/07/29 11:46:48;;;;;;;1.63;0.55;;;;;;;;;;5045364;28;20618;-78
2023/07/29 11:49:15;;;;;;;2.53;0.60;;;;;;;;;;5026575;28;20033;-78
2023/07/29 11:51:41;;;;;;;4.00;0.70;;;;;;;;;;5045844;28;20041;-79
2023/07/29 11:54:08;;;;;;;0.63;0.50;;;;;;;;;;5047672;28;20083;-79
2023/07/29 11:56:35;;;;;;;0.70;0.50;;;;;;;;;;5023145;28;20629;-79
2023/07/29 11:59:03;;;;;;;0.55;0.43;;;;;;;;;;5048736;28;20479;-77
2023/07/29 12:01:30;;;;;;;1.13;0.52;;;;;;;;;;5027593;28;20677;-79
2023/07/29 12:03:57;;;;;;;1.10;0.60;;;;;;;;;;5018318;28;20041;-79
2023/07/29 12:06:24;;;;;;;0.85;0.50;;;;;;;;;;5043349;28;20060;-77
2023/07/29 12:08:51;;;;;;;1.20;0.63;;;;;;;;;;5045534;28;20068;-79
2023/07/29 12:11:20;;;;;;;1.42;0.60;;;;;;;;;;5045080;28;20430;-79
2023/07/29 12:13:46;;;;;;;1.00;0.60;;;;;;;;;;5049910;28;20071;-78
2023/07/29 12:16:17;;;;;;;0.90;0.65;;;;;;;;;;5030933;28;20033;-80
2023/07/29 12:18:44;;;;;;;0.88;0.43;;;;;;;;;;5057817;28;20048;-80
2023/07/29 12:21:13;;;;;;;0.50;0.40;;;;;;;;;;5050805;28;20041;-80
2023/07/29 12:23:40;;;;;;;1.00;0.40;;;;;;;;;;5045893;28;20043;-80
2023/07/29 12:26:06;;;;;;;0.90;0.50;;;;;;;;;;5009988;28;20045;-80
2023/07/29 12:28:33;;;;;;;0.60;0.40;;;;;;;;;;5029072;28;20061;-78
2023/07/29 12:30:59;;;;;;;0.82;0.40;;;;;;;;;;5027950;28;20037;-80
2023/07/29 12:33:44;;;;;;;0.52;0.40;;;;;;;;;;5027467;28;20116;-79
2023/07/29 12:36:12;;;;;;;0.32;0.30;;;;;;;;;;5030841;28;20060;-81
2023/07/29 12:38:39;;;;;;;0.60;0.50;;;;;;;;;;5051591;28;20045;-81
2023/07/29 12:41:06;;;;;;;0.75;0.45;;;;;;;;;;5052204;28;20045;-80
2023/07/29 12:43:35;;;;;;;2.85;0.40;;;;;;;;;;5036055;28;20055;-82
2023/07/29 12:46:01;;;;;;;0.45;0.30;;;;;;;;;;5053325;28;20419;-80
2023/07/29 12:48:28;;;;;;;3.38;1.50;;;;;;;;;;5035434;28;20064;-80
2023/07/29 12:50:55;;;;;;;0.73;0.40;;;;;;;;;;5020690;28;20071;-81
2023/07/29 12:53:22;;;;;;;0.50;0.40;;;;;;;;;;5053938;28;20310;-81
2023/07/29 12:55:49;;;;;;;1.23;0.70;;;;;;;;;;5034082;28;20281;-80
2023/07/29 12:58:16;;;;;;;0.50;0.47;;;;;;;;;;5032432;28;20140;-79
2023/07/29 13:00:42;;;;;;;0.47;0.40;;;;;;;;;;5015127;28;20037;-81
2023/07/29 13:03:09;;;;;;;0.35;0.35;;;;;;;;;;5037032;28;20499;-82
2023/07/29 13:05:37;;;;;;;2.15;0.60;;;;;;;;;;5053480;28;20545;-80
2023/07/29 13:08:03;;;;;;;1.30;0.60;;;;;;;;;;5028769;28;20053;-80
2023/07/29 13:10:30;;;;;;;0.75;0.50;;;;;;;;;;5020866;28;20064;-82
2023/07/29 13:12:57;;;;;;;1.95;0.40;;;;;;;;;;5054862;28;20104;-82
2023/07/29 13:15:24;;;;;;;0.80;0.65;;;;;;;;;;5025243;28;20049;-80
2023/07/29 13:17:50;;;;;;;0.60;0.45;;;;;;;;;;5001992;28;20557;-80
2023/07/29 13:20:17;;;;;;;1.50;0.80;;;;;;;;;;4998251;28;20072;-80
2023/07/29 13:22:44;;;;;;;1.70;0.70;;;;;;;;;;5034804;28;20101;-80
2023/07/29 13:25:11;;;;;;;1.15;0.80;;;;;;;;;;5034583;28;20049;-79
2023/07/29 13:27:37;;;;;;;3.10;0.68;;;;;;;;;;5033849;28;20518;-81
2023/07/29 13:30:04;;;;;;;0.93;0.60;;;;;;;;;;5035991;28;20045;-81
2023/07/29 13:32:31;;;;;;;0.70;0.43;;;;;;;;;;5055495;28;20136;-81
2023/07/29 13:34:58;;;;;;;1.25;0.70;;;;;;;;;;5006881;28;20123;-82
2023/07/29 13:37:25;;;;;;;2.42;0.63;;;;;;;;;;5001547;28;20068;-81
2023/07/29 13:39:52;;;;;;;1.30;0.70;;;;;;;;;;5019590;28;20075;-80
2023/07/29 13:42:19;;;;;;;2.33;0.85;;;;;;;;;;5021257;28;20068;-78
2023/07/29 13:44:45;;;;;;;1.40;0.65;;;;;;;;;;5035682;28;20045;-78
2023/07/29 13:47:12;;;;;;;1.30;0.73;;;;;;;;;;5035709;28;20091;-79
2023/07/29 13:49:39;;;;;;;1.67;0.73;;;;;;;;;;5002681;28;20411;-79
2023/07/29 13:52:06;;;;;;;0.80;0.80;;;;;;;;;;4995997;28;20042;-81
2023/07/29 13:54:33;;;;;;;1.83;0.80;;;;;;;;;;5013961;28;20604;-79
2023/07/29 13:57:00;;;;;;;1.55;0.68;;;;;;;;;;5036841;28;20395;-78
2023/07/29 13:59:26;;;;;;;1.23;0.80;;;;;;;;;;5018553;28;20392;-80
2023/07/29 14:01:53;;;;;;;1.90;0.80;;;;;;;;;;5034894;28;20076;-80
2023/07/29 14:04:20;;;;;;;0.98;0.77;;;;;;;;;;5019950;28;20052;-80
2023/07/29 14:06:47;;;;;;;2.05;0.82;;;;;;;;;;5025854;28;20666;-79
2023/07/29 14:09:21;;;;;;;1.05;0.80;;;;;;;;;;5048441;28;20053;-78
2023/07/29 14:11:48;;;;;;;2.75;0.70;;;;;;;;;;5031303;28;20363;-80
2023/07/29 14:14:15;;;;;;;1.85;0.82;;;;;;;;;;5025765;28;20049;-79
2023/07/29 14:16:42;;;;;;;2.15;0.80;;;;;;;;;;5007278;28;20041;-78
2023/07/29 14:19:08;;;;;;;1.38;0.82;;;;;;;;;;5002718;28;20048;-77
2023/07/29 14:21:35;;;;;;;0.90;0.70;;;;;;;;;;5012081;28;20052;-80
2023/07/29 14:24:02;;;;;;;1.10;0.80;;;;;;;;;;5025861;28;20045;-80
2023/07/29 14:26:29;;;;;;;1.08;0.88;;;;;;;;;;5020300;28;20642;-79
2023/07/29 14:28:56;;;;;;;1.40;0.85;;;;;;;;;;5033098;28;20453;-80
2023/07/29 14:31:22;;;;;;;1.10;0.98;;;;;;;;;;5034154;28;20077;-79
2023/07/29 14:33:49;;;;;;;1.33;0.80;;;;;;;;;;5010623;28;20412;-79
2023/07/29 14:36:16;;;;;;;0.95;0.75;;;;;;;;;;5025888;28;20049;-80
2023/07/29 14:38:43;;;;;;;1.45;0.88;;;;;;;;;;5026219;28;20053;-80
2023/07/29 14:41:09;;;;;;;0.80;0.70;;;;;;;;;;5021657;28;20164;-78
2023/07/29 14:43:36;;;;;;;1.27;0.80;;;;;;;;;;5028228;28;20076;-78
2023/07/29 14:46:03;;;;;;;0.88;0.70;;;;;;;;;;5029115;28;20049;-79